SBVTSBRJ

Guest
Details From SBVT - Goiabeiras
To SBRJ - Santos-Dumont
Flight Number -
Tags decoded
Created
Modified
Stats Distance 235 nm / 435 km
Max Altitude 0 ft / 0 m
Waypoints 3
Social Downloads 6
Likes 0
Share VATSIM

Download

Looking for another format? Having issues loading an existing format? Contact us
Advertisement - Login to hide

Notes

Requested: SBVT SK MAC LOBO LIAR SBRJ Unmatched points: LOBO LIAR

Route

SBVT MAC SBRJ

ID Type Via Altitude Latitude Longitude Leg Dist Tot Dist Heading (true) Name
O SBVT APT - 0 ft / 0 m -20.25561˚ -40.28889˚ - 0 nm - Goiabeiras
MAC NDB - 0 ft / 0 m -22.34532˚ -41.76136˚ 150 nm 150 nm 213° / 214° MACAE NDB
O SBRJ APT - 0 ft / 0 m -22.91046˚ -43.16313˚ 84 nm 234 nm 246° / 247° Santos-Dumont

Altitude Profile

Advertisement - Login to hide

Weather


0- 5 10 15 20 25 30 35+ Temperature / ° C

Clouds and Precipitation
Forecast for 2017-12-13 12:00 UTC. Updated 2 minutes ago

Ground ~20,000 ft ~40,000 ft Winds

SBVT

Details ICAO SBVT (VIX)
Name Goiabeiras
Region Brazil
Timezone America/Sao_Paulo (UTC-2.0)
Stats Elevation 11 ft / 3 m (AMSL)
Location -20.255611° -40.288893°
Runways 1
Magnetic Variation 23.796° W

METAR

SBVT 130700Z 14007KT 9999 FEW020 SCT040 24/20 Q1016

Decode

TAF

TAF SBVT 130230Z 1306/1406 25005KT 8000 SCT020 TN23/1308Z TX28/1315Z TEMPO 1306/1309 4000 SHRA BKN006 BKN020 BECMG 1312/1314 16010KT TEMPO 1319/1322 4500 SHRA BKN016 FEW025TCU BECMG 1323/1401 33004KT RMK PEA

Decode

Departure Runways

ID Width Length Bearing (true) Bearing (mag) Surface Threshold Offset Overrun Length
05 148 ft / 45 m 5,769 ft / 1,759 m 31.71° 55.51° Asphalt 0 ft / 0 m 189 ft / 58 m
23 148 ft / 45 m 5,769 ft / 1,759 m 211.71° 235.51° Asphalt 0 ft / 0 m 189 ft / 58 m

SBRJ

Details ICAO SBRJ (SDU)
Name Santos-Dumont
Region Brazil
Timezone Unknown (UTC+0.0)
Stats Elevation 11 ft / 3 m (AMSL)
Location -22.910460° -43.163133°
Runways 2
Magnetic Variation 22.781° W

METAR

SBRJ 130700Z 12002KT 9999 SCT020 BKN050 22/19 Q1017

Decode

TAF

TAF SBRJ 130200Z 1306/1318 10008KT 9999 SCT015 BKN040TN22/1308Z TX25/1317Z PROB30 1308/1310 07005KT 4000 BR BKN012 BECMG 1315/1317 14010KT SCT020 RMK PGU

Decode

Destination Runways

ID Width Length Bearing (true) Bearing (mag) Surface Threshold Offset Overrun Length
02L 98 ft / 30 m 4,154 ft / 1,266 m 358.02° 20.80° Asphalt 0 ft / 0 m 80 ft / 24 m
02R 138 ft / 42 m 4,361 ft / 1,329 m 358.01° 20.79° Asphalt 0 ft / 0 m 80 ft / 24 m
20L 138 ft / 42 m 4,361 ft / 1,329 m 178.01° 200.79° Asphalt 0 ft / 0 m 80 ft / 24 m
20R 98 ft / 30 m 4,154 ft / 1,266 m 178.02° 200.80° Asphalt 0 ft / 0 m 95 ft / 29 m

Approach Navaids

Runway Type Ident Frequency Range Bearing (true) Bearing (mag) Slope Elevation
20L Localiser IRJ 111.10 MHz 18 nm / 33 km 172.42° 195.20° - 11 ft / 3 m (AMSL)

Popular Alternatives